createdAt,value
2024-03-22T00:00:07.526Z,101458.62
2024-03-22T00:05:14.904Z,101454.27
2024-03-22T00:10:20.680Z,101448.89
2024-03-22T00:15:26.274Z,101432.91
2024-03-22T00:20:35.130Z,101432.45
2024-03-22T00:25:39.123Z,101431.84
2024-03-22T00:30:45.192Z,101427.75
2024-03-22T00:35:50.762Z,101432.97
2024-03-22T00:40:56.631Z,101428.52
2024-03-22T00:46:04.034Z,101427.13
2024-03-22T00:51:09.702Z,101433.38
2024-03-22T00:56:15.363Z,101433.53
2024-03-22T01:01:21.041Z,101432.20
2024-03-22T01:06:28.343Z,101424.67
2024-03-22T01:11:33.920Z,101414.48
2024-03-22T01:16:41.112Z,101410.80
2024-03-22T01:21:46.677Z,101398.00
2024-03-22T01:26:52.241Z,101389.76
2024-03-22T01:31:57.818Z,101382.44
2024-03-22T01:37:04.119Z,101374.12
2024-03-22T01:42:09.760Z,101374.64
2024-03-22T01:47:15.536Z,101363.81
2024-03-22T01:52:21.179Z,101363.60
2024-03-22T01:57:26.956Z,101355.56
2024-03-22T02:02:32.636Z,101337.28
2024-03-22T02:07:38.386Z,101339.43
2024-03-22T02:12:44.162Z,101316.80
2024-03-22T02:17:49.827Z,101318.03
2024-03-22T02:22:55.811Z,101311.02
2024-03-22T02:28:01.479Z,101305.23
2024-03-22T02:33:07.554Z,101301.13
2024-03-22T02:38:13.221Z,101285.94
2024-03-22T02:43:20.374Z,101284.45
2024-03-22T02:48:26.500Z,101286.30
2024-03-22T02:53:32.158Z,101279.23
2024-03-22T02:58:37.953Z,101264.70
2024-03-22T03:03:43.734Z,101257.18
2024-03-22T03:08:49.573Z,101256.95
2024-03-22T03:13:55.389Z,101247.80
2024-03-22T03:19:02.740Z,101243.28
2024-03-22T03:24:10.164Z,101240.56
2024-03-22T03:29:16.029Z,101221.11
2024-03-22T03:34:22.000Z,101208.95
2024-03-22T03:39:27.683Z,101200.74
2024-03-22T03:44:33.339Z,101192.15
2024-03-22T03:49:39.005Z,101196.52
2024-03-22T03:54:44.692Z,101183.55
2024-03-22T03:59:50.441Z,101180.42
2024-03-22T04:04:56.515Z,101164.27
2024-03-22T04:10:02.190Z,101168.14
2024-03-22T04:15:09.002Z,101175.38
2024-03-22T04:20:15.129Z,101170.74
2024-03-22T04:25:21.234Z,101163.56
2024-03-22T04:30:27.315Z,101147.17
2024-03-22T04:35:32.984Z,101142.84
2024-03-22T04:40:38.542Z,101141.45
2024-03-22T04:45:45.806Z,101156.39
2024-03-22T04:50:52.753Z,101137.61
2024-03-22T04:55:58.338Z,101109.17
2024-03-22T05:01:03.976Z,101093.98
2024-03-22T05:06:09.747Z,101090.73
2024-03-22T05:11:15.474Z,101078.64
2024-03-22T05:16:21.388Z,101089.45
2024-03-22T05:21:27.056Z,101091.92
2024-03-22T05:26:34.261Z,101085.94
2024-03-22T05:31:42.894Z,101076.84
2024-03-22T05:36:49.057Z,101066.45
2024-03-22T05:41:55.475Z,101045.94
2024-03-22T05:47:01.636Z,101033.64
2024-03-22T05:52:07.495Z,101030.97
2024-03-22T05:57:13.691Z,101034.31
2024-03-22T06:02:19.504Z,101025.66
2024-03-22T06:07:25.133Z,101004.36
2024-03-22T06:12:30.794Z,101000.08
2024-03-22T06:17:36.418Z,100984.63
2024-03-22T06:22:42.198Z,100970.05
2024-03-22T06:27:47.802Z,100965.03
2024-03-22T06:32:53.368Z,100961.73
2024-03-22T06:37:58.934Z,100972.61
2024-03-22T06:43:04.701Z,100963.56
2024-03-22T06:48:10.474Z,100970.87
2024-03-22T06:53:16.030Z,100958.15
2024-03-22T06:58:21.700Z,100955.80
2024-03-22T07:03:27.275Z,100958.87
2024-03-22T07:08:33.236Z,100957.94
2024-03-22T07:13:38.812Z,100964.20
2024-03-22T07:18:44.801Z,100946.42
2024-03-22T07:23:50.472Z,100939.19
2024-03-22T07:28:56.214Z,100955.70
2024-03-22T07:34:01.882Z,100950.13
2024-03-22T07:39:10.978Z,100944.08
2024-03-22T07:44:18.544Z,100945.97
2024-03-22T07:49:24.108Z,100951.45
2024-03-22T07:54:29.662Z,100941.80
2024-03-22T07:59:35.953Z,100932.73
2024-03-22T08:04:41.716Z,100920.19
2024-03-22T08:09:47.380Z,100916.55
2024-03-22T08:14:53.490Z,100903.33
2024-03-22T08:19:59.333Z,100885.13
2024-03-22T08:25:05.680Z,100890.45
2024-03-22T08:30:12.732Z,100880.57
2024-03-22T08:35:18.489Z,100875.72
2024-03-22T08:40:24.479Z,100870.89
2024-03-22T08:45:30.234Z,100856.73
2024-03-22T08:50:36.307Z,100856.22
2024-03-22T08:55:49.855Z,100841.14
2024-03-22T09:00:57.475Z,100827.78
2024-03-22T09:06:08.837Z,100822.09
2024-03-22T09:11:11.323Z,100806.19
2024-03-22T09:16:17.273Z,100796.03
2024-03-22T09:21:23.210Z,100806.80
2024-03-22T09:26:28.893Z,100800.34
2024-03-22T09:31:34.702Z,100790.92
2024-03-22T09:36:40.319Z,100776.61
2024-03-22T09:41:49.719Z,100759.97
2024-03-22T09:46:54.933Z,100756.27
2024-03-22T09:52:00.932Z,100767.48
2024-03-22T09:57:08.539Z,100763.67
2024-03-22T10:02:15.298Z,100746.99
2024-03-22T10:07:21.038Z,100760.98
2024-03-22T10:12:27.172Z,100745.16
2024-03-22T10:17:32.957Z,100745.45
2024-03-22T10:22:38.707Z,100734.33
2024-03-22T10:27:44.409Z,100729.61
2024-03-22T10:32:54.077Z,100726.13
2024-03-22T10:37:59.716Z,100722.30
2024-03-22T10:43:05.767Z,100717.23
2024-03-22T10:48:12.805Z,100705.91
2024-03-22T10:53:25.731Z,100706.86
2024-03-22T10:58:31.986Z,100706.37
2024-03-22T11:03:38.258Z,100679.69
2024-03-22T11:08:43.931Z,100675.36
2024-03-22T11:13:50.520Z,100662.71
2024-03-22T11:18:56.828Z,100654.20
2024-03-22T11:24:05.896Z,100656.66
2024-03-22T11:29:11.726Z,100640.09
2024-03-22T11:34:17.715Z,100632.69
2024-03-22T11:39:24.713Z,100631.17
2024-03-22T11:44:31.028Z,100621.62
2024-03-22T11:49:37.151Z,100615.30
2024-03-22T11:54:42.923Z,100610.45
2024-03-22T12:00:02.566Z,100605.88
2024-03-22T12:04:55.980Z,100595.77
2024-03-22T12:10:01.661Z,100592.02
2024-03-22T12:15:08.184Z,100596.55
2024-03-22T12:20:15.399Z,100585.42
2024-03-22T12:25:21.018Z,100575.16
2024-03-22T12:30:27.527Z,100576.88
2024-03-22T12:35:33.998Z,100565.02
2024-03-22T12:40:40.631Z,100546.66
2024-03-22T12:45:46.348Z,100536.94
2024-03-22T12:50:52.318Z,100527.26
2024-03-22T12:55:57.914Z,100522.76
2024-03-22T13:01:04.486Z,100519.22
2024-03-22T13:06:10.248Z,100515.30
2024-03-22T13:11:16.016Z,100514.08
2024-03-22T13:16:21.582Z,100516.91
2024-03-22T13:21:28.389Z,100492.21
2024-03-22T13:26:34.156Z,100500.37
2024-03-22T13:31:43.257Z,100489.02
2024-03-22T13:36:48.253Z,100484.39
2024-03-22T13:41:53.926Z,100484.67
2024-03-22T13:46:59.473Z,100494.70
2024-03-22T13:52:09.594Z,100487.94
2024-03-22T13:57:15.637Z,100491.52
2024-03-22T14:02:21.515Z,100490.45
2024-03-22T14:07:28.708Z,100489.80
2024-03-22T14:12:34.388Z,100479.38
2024-03-22T14:17:40.059Z,100475.72
2024-03-22T14:22:45.882Z,100459.48
2024-03-22T14:27:53.449Z,100456.45
2024-03-22T14:32:59.294Z,100443.01
2024-03-22T14:38:05.223Z,100439.83
2024-03-22T14:43:12.707Z,100436.89
2024-03-22T14:48:18.383Z,100433.52
2024-03-22T14:53:24.617Z,100429.81
2024-03-22T14:58:31.833Z,100426.78
2024-03-22T15:03:37.905Z,100424.66
2024-03-22T15:08:43.572Z,100412.38
2024-03-22T15:13:49.661Z,100414.94
2024-03-22T15:18:55.305Z,100413.39
2024-03-22T15:24:00.997Z,100414.26
2024-03-22T15:29:06.862Z,100401.70
2024-03-22T15:34:12.644Z,100405.03
2024-03-22T15:39:19.491Z,100402.67
2024-03-22T15:44:27.436Z,100406.43
2024-03-22T15:49:33.008Z,100397.72
2024-03-22T15:54:39.072Z,100395.95
2024-03-22T15:59:45.610Z,100393.91
2024-03-22T16:04:52.867Z,100381.73
2024-03-22T16:09:58.646Z,100373.28
2024-03-22T16:15:06.063Z,100369.58
2024-03-22T16:20:13.219Z,100366.09
2024-03-22T16:25:18.861Z,100373.45
2024-03-22T16:30:24.520Z,100371.03
2024-03-22T16:35:30.357Z,100371.75
2024-03-22T16:40:36.037Z,100375.60
2024-03-22T16:45:41.804Z,100372.48
2024-03-22T16:50:48.015Z,100371.17
2024-03-22T16:55:53.680Z,100372.31
2024-03-22T17:01:10.083Z,100376.53
2024-03-22T17:06:21.504Z,100370.38
2024-03-22T17:11:23.440Z,100368.11
2024-03-22T17:16:29.108Z,100372.91
2024-03-22T17:21:34.779Z,100373.34
2024-03-22T17:26:43.619Z,100372.31
2024-03-22T17:31:49.439Z,100376.24
2024-03-22T17:36:56.292Z,100383.97
2024-03-22T17:42:04.329Z,100379.67
2024-03-22T17:47:10.191Z,100373.20
2024-03-22T17:52:17.067Z,100373.03
2024-03-22T17:57:25.792Z,100373.61
2024-03-22T18:02:31.884Z,100376.08
2024-03-22T18:07:37.708Z,100366.81
2024-03-22T18:12:43.381Z,100374.65
2024-03-22T18:17:49.372Z,100369.67
2024-03-22T18:22:56.497Z,100361.94
2024-03-22T18:28:02.483Z,100355.73
2024-03-22T18:33:08.276Z,100350.86
2024-03-22T18:38:14.837Z,100356.51
2024-03-22T18:43:20.604Z,100359.66
2024-03-22T18:48:26.813Z,100360.72
2024-03-22T18:53:32.450Z,100362.53
2024-03-22T18:58:38.216Z,100355.65
2024-03-22T19:03:44.005Z,100354.79
2024-03-22T19:08:49.764Z,100327.84
2024-03-22T19:13:55.835Z,100338.78
2024-03-22T19:19:01.617Z,100340.12
2024-03-22T19:24:07.906Z,100340.70
2024-03-22T19:29:15.491Z,100340.22
2024-03-22T19:34:21.275Z,100338.27
2024-03-22T19:39:27.247Z,100341.70
2024-03-22T19:44:33.429Z,100347.05
2024-03-22T19:49:39.195Z,100325.88
2024-03-22T19:54:44.969Z,100334.87
2024-03-22T19:59:52.207Z,100342.99
2024-03-22T20:04:58.064Z,100323.88
2024-03-22T20:10:04.608Z,100329.83
2024-03-22T20:15:11.896Z,100325.44
2024-03-22T20:20:18.048Z,100329.06
2024-03-22T20:25:24.808Z,100329.16
2024-03-22T20:30:32.005Z,100319.55
2024-03-22T20:35:37.619Z,100330.45
2024-03-22T20:40:44.017Z,100323.48
2024-03-22T20:45:50.339Z,100322.14
2024-03-22T20:50:56.725Z,100328.45
2024-03-22T20:56:03.201Z,100324.05
2024-03-22T21:01:10.006Z,100320.62
2024-03-22T21:06:16.430Z,100318.05
2024-03-22T21:11:22.876Z,100318.14
2024-03-22T21:16:29.251Z,100315.47
2024-03-22T21:21:35.667Z,100316.61
2024-03-22T21:26:42.202Z,100312.73
2024-03-22T21:31:48.713Z,100305.38
2024-03-22T21:36:56.738Z,100302.33
2024-03-22T21:42:03.087Z,100300.61
2024-03-22T21:47:09.713Z,100298.14
2024-03-22T21:52:16.313Z,100298.18
2024-03-22T21:57:22.751Z,100289.02
2024-03-22T22:02:29.091Z,100288.58
2024-03-22T22:07:35.553Z,100288.38
2024-03-22T22:12:43.087Z,100287.55
2024-03-22T22:17:51.093Z,100282.02
2024-03-22T22:22:57.485Z,100284.78
2024-03-22T22:28:03.994Z,100270.75
2024-03-22T22:33:11.874Z,100274.09
2024-03-22T22:38:18.253Z,100268.84
2024-03-22T22:43:24.658Z,100271.06
2024-03-22T22:48:31.136Z,100262.11
2024-03-22T22:53:37.506Z,100261.49
2024-03-22T22:58:43.994Z,100248.90
2024-03-22T23:03:50.388Z,100250.22
2024-03-22T23:08:56.765Z,100239.17
2024-03-22T23:14:02.947Z,100232.58
2024-03-22T23:19:09.326Z,100233.14
2024-03-22T23:24:15.736Z,100230.95
2024-03-22T23:29:22.912Z,100218.68
2024-03-22T23:34:29.352Z,100236.50
2024-03-22T23:39:35.894Z,100223.63
2024-03-22T23:44:42.272Z,100231.34
2024-03-22T23:49:48.655Z,100220.77
2024-03-22T23:54:56.831Z,100218.84
